Overview Statistics Trail Chart Weather Telemetry Raw packets
 

This is the latest recevied weather packets stored in our database for station/object ED1ZAI-13. If no packets are shown the sender has not sent any weather packets the latest 10 day(s).

<< 23 24 25 26 27 28 29 >>
Time Temp. Humidity Pressure Rain* Wind** Luminosity Snow
1788256173 24.44° C 43% 1016.4 hPa - - - -
1788255573 26.67° C 39% 1018.5 hPa - - - -
1788254972 25° C 45% 1016.4 hPa - - - -
1788254372 25.56° C 39% 1018 hPa - - - -
1788253772 25.56° C 43% 1016.4 hPa - - - -
1788253171 23.89° C 44% 1016.1 hPa - - - -
1788252573 23.33° C 48% 1014.2 hPa - - - -
1788251973 23.33° C 46% 1015.2 hPa - - - -
1788251372 22.78° C 49% 1013.9 hPa - - - -
1788250772 22.78° C 47% 1014.5 hPa - - - -
1788250172 22.22° C 48% 1014 hPa - - - -
1788249573 21.67° C 51% 1011.1 hPa - - - -
1788248973 19.44° C 57% 1007.4 hPa - - - -
1788248226 17.22° C 64% 1004.4 hPa - - - -
1788247626 16.67° C 64% 1004.8 hPa - - - -
1788247026 16.67° C 64% 1004.9 hPa - - - -
1788246426 16.67° C 65% 1004.5 hPa - - - -
1788245825 16.11° C 66% 1003.7 hPa - - - -
1788245225 16.11° C 66% 1003.5 hPa - - - -
1788244627 16.11° C 68% 1003.2 hPa - - - -
1788244027 15.56° C 69% 1003 hPa - - - -
1788243426 15.56° C 70% 1003 hPa - - - -
1788242826 15° C 70% 1002.9 hPa - - - -
1788242225 15° C 70% 1003.1 hPa - - - -
1788241627 14.44° C 70% 1002.9 hPa - - - -

* Rain since midnight (hover to see other rain measurements)
** Current wind speed in m/s (hover to see current wind gust speed)